sensor_id;sensor_type;location;lat;lon;timestamp;temperature;humidity
37786;DHT22;23625;48.784;9.336;2022-09-09T00:04:33;13.90;99.90
37786;DHT22;23625;48.784;9.336;2022-09-09T00:07:32;13.90;99.90
37786;DHT22;23625;48.784;9.336;2022-09-09T00:10:29;13.80;99.90
37786;DHT22;23625;48.784;9.336;2022-09-09T00:18:40;13.80;99.90
37786;DHT22;23625;48.784;9.336;2022-09-09T00:21:11;13.90;99.90
37786;DHT22;23625;48.784;9.336;2022-09-09T00:23:40;13.90;99.90
37786;DHT22;23625;48.784;9.336;2022-09-09T00:29:05;13.90;99.90
37786;DHT22;23625;48.784;9.336;2022-09-09T00:31:35;13.90;99.90
37786;DHT22;23625;48.784;9.336;2022-09-09T00:34:15;13.80;99.90
37786;DHT22;23625;48.784;9.336;2022-09-09T00:36:42;13.80;99.90
37786;DHT22;23625;48.784;9.336;2022-09-09T00:39:27;13.80;99.90
37786;DHT22;23625;48.784;9.336;2022-09-09T00:42:26;13.80;99.90
37786;DHT22;23625;48.784;9.336;2022-09-09T00:44:59;13.90;99.90
37786;DHT22;23625;48.784;9.336;2022-09-09T00:50:20;14.10;99.90
37786;DHT22;23625;48.784;9.336;2022-09-09T00:56:08;14.20;99.90
37786;DHT22;23625;48.784;9.336;2022-09-09T00:58:34;14.30;99.90
37786;DHT22;23625;48.784;9.336;2022-09-09T01:01:04;14.30;99.90
37786;DHT22;23625;48.784;9.336;2022-09-09T01:03:52;14.40;99.90
37786;DHT22;23625;48.784;9.336;2022-09-09T01:06:32;14.50;99.90
37786;DHT22;23625;48.784;9.336;2022-09-09T01:09:21;14.50;99.90
37786;DHT22;23625;48.784;9.336;2022-09-09T01:12:16;14.50;99.90
37786;DHT22;23625;48.784;9.336;2022-09-09T01:14:47;14.70;99.90
37786;DHT22;23625;48.784;9.336;2022-09-09T01:17:30;14.70;99.90
37786;DHT22;23625;48.784;9.336;2022-09-09T01:20:06;14.70;99.90
37786;DHT22;23625;48.784;9.336;2022-09-09T01:28:16;14.80;99.90
37786;DHT22;23625;48.784;9.336;2022-09-09T01:30:44;14.70;99.90
37786;DHT22;23625;48.784;9.336;2022-09-09T01:33:14;14.60;99.90
37786;DHT22;23625;48.784;9.336;2022-09-09T01:36:35;14.60;99.90
37786;DHT22;23625;48.784;9.336;2022-09-09T01:38:41;14.50;99.90
37786;DHT22;23625;48.784;9.336;2022-09-09T01:41:07;14.40;99.90
37786;DHT22;23625;48.784;9.336;2022-09-09T01:43:32;14.30;99.90
37786;DHT22;23625;48.784;9.336;2022-09-09T01:46:00;14.20;99.90
37786;DHT22;23625;48.784;9.336;2022-09-09T01:48:27;14.20;99.90
37786;DHT22;23625;48.784;9.336;2022-09-09T01:50:53;14.20;99.90
37786;DHT22;23625;48.784;9.336;2022-09-09T01:53:20;14.20;99.90
37786;DHT22;23625;48.784;9.336;2022-09-09T01:56:20;14.30;99.90
37786;DHT22;23625;48.784;9.336;2022-09-09T02:03:56;14.50;99.90
37786;DHT22;23625;48.784;9.336;2022-09-09T02:06:34;14.50;99.90
37786;DHT22;23625;48.784;9.336;2022-09-09T02:09:04;14.40;99.90
37786;DHT22;23625;48.784;9.336;2022-09-09T02:11:30;14.40;99.90
37786;DHT22;23625;48.784;9.336;2022-09-09T02:14:18;14.30;99.90
37786;DHT22;23625;48.784;9.336;2022-09-09T02:17:03;14.30;99.90
37786;DHT22;23625;48.784;9.336;2022-09-09T02:19:53;14.20;99.90
37786;DHT22;23625;48.784;9.336;2022-09-09T02:22:24;14.20;99.90
37786;DHT22;23625;48.784;9.336;2022-09-09T02:24:51;14.20;99.90
37786;DHT22;23625;48.784;9.336;2022-09-09T02:27:20;14.10;99.90
37786;DHT22;23625;48.784;9.336;2022-09-09T02:29:49;14.00;99.90
37786;DHT22;23625;48.784;9.336;2022-09-09T02:32:22;14.00;99.90
37786;DHT22;23625;48.784;9.336;2022-09-09T02:35:02;14.00;99.90
37786;DHT22;23625;48.784;9.336;2022-09-09T02:37:33;14.00;99.90
37786;DHT22;23625;48.784;9.336;2022-09-09T02:40:05;14.00;99.90
37786;DHT22;23625;48.784;9.336;2022-09-09T02:42:31;13.90;99.90
37786;DHT22;23625;48.784;9.336;2022-09-09T02:44:57;13.90;99.90
37786;DHT22;23625;48.784;9.336;2022-09-09T02:47:39;14.00;99.90
37786;DHT22;23625;48.784;9.336;2022-09-09T02:50:25;13.90;99.90
37786;DHT22;23625;48.784;9.336;2022-09-09T02:55:46;13.80;99.90
37786;DHT22;23625;48.784;9.336;2022-09-09T02:58:15;13.70;99.90
37786;DHT22;23625;48.784;9.336;2022-09-09T03:00:47;13.60;99.90
37786;DHT22;23625;48.784;9.336;2022-09-09T03:03:14;13.60;99.90
37786;DHT22;23625;48.784;9.336;2022-09-09T03:05:42;13.60;99.90
37786;DHT22;23625;48.784;9.336;2022-09-09T03:08:07;13.60;99.90
37786;DHT22;23625;48.784;9.336;2022-09-09T03:10:34;13.50;99.90
37786;DHT22;23625;48.784;9.336;2022-09-09T03:13:00;13.50;99.90
37786;DHT22;23625;48.784;9.336;2022-09-09T03:15:26;13.50;99.90
37786;DHT22;23625;48.784;9.336;2022-09-09T03:17:56;13.50;99.90
37786;DHT22;23625;48.784;9.336;2022-09-09T03:20:24;13.40;99.90
37786;DHT22;23625;48.784;9.336;2022-09-09T03:22:55;13.50;99.90
37786;DHT22;23625;48.784;9.336;2022-09-09T03:25:21;13.50;99.90
37786;DHT22;23625;48.784;9.336;2022-09-09T03:27:49;13.60;99.90
37786;DHT22;23625;48.784;9.336;2022-09-09T03:30:15;13.60;99.90
37786;DHT22;23625;48.784;9.336;2022-09-09T03:32:41;13.60;99.90
37786;DHT22;23625;48.784;9.336;2022-09-09T03:35:07;13.60;99.90
37786;DHT22;23625;48.784;9.336;2022-09-09T03:37:33;13.60;99.90
37786;DHT22;23625;48.784;9.336;2022-09-09T03:39:58;13.60;99.90
37786;DHT22;23625;48.784;9.336;2022-09-09T03:42:25;13.60;99.90
37786;DHT22;23625;48.784;9.336;2022-09-09T03:44:50;13.70;99.90
37786;DHT22;23625;48.784;9.336;2022-09-09T03:47:20;13.70;99.90
37786;DHT22;23625;48.784;9.336;2022-09-09T03:49:47;13.70;99.90
37786;DHT22;23625;48.784;9.336;2022-09-09T03:52:14;13.70;99.90
37786;DHT22;23625;48.784;9.336;2022-09-09T03:54:40;13.70;99.90
37786;DHT22;23625;48.784;9.336;2022-09-09T03:57:08;13.80;99.90
37786;DHT22;23625;48.784;9.336;2022-09-09T03:59:34;13.80;99.90
37786;DHT22;23625;48.784;9.336;2022-09-09T04:02:00;13.90;99.90
37786;DHT22;23625;48.784;9.336;2022-09-09T04:04:26;14.00;99.90
37786;DHT22;23625;48.784;9.336;2022-09-09T04:06:52;14.00;99.90
37786;DHT22;23625;48.784;9.336;2022-09-09T04:09:18;14.10;99.90
37786;DHT22;23625;48.784;9.336;2022-09-09T04:11:43;14.10;99.90
37786;DHT22;23625;48.784;9.336;2022-09-09T04:14:09;14.20;99.90
37786;DHT22;23625;48.784;9.336;2022-09-09T04:16:35;14.30;99.90
37786;DHT22;23625;48.784;9.336;2022-09-09T04:19:03;14.40;99.90
37786;DHT22;23625;48.784;9.336;2022-09-09T04:21:30;14.50;99.90
37786;DHT22;23625;48.784;9.336;2022-09-09T04:23:56;14.50;99.90
37786;DHT22;23625;48.784;9.336;2022-09-09T04:26:22;14.50;99.90
37786;DHT22;23625;48.784;9.336;2022-09-09T04:28:47;14.50;99.90
37786;DHT22;23625;48.784;9.336;2022-09-09T04:31:18;14.50;99.90
37786;DHT22;23625;48.784;9.336;2022-09-09T04:33:45;14.50;99.90
37786;DHT22;23625;48.784;9.336;2022-09-09T04:36:12;14.50;99.90
37786;DHT22;23625;48.784;9.336;2022-09-09T04:38:38;14.40;99.90
37786;DHT22;23625;48.784;9.336;2022-09-09T04:41:05;14.40;99.90
37786;DHT22;23625;48.784;9.336;2022-09-09T04:43:31;14.50;99.90
37786;DHT22;23625;48.784;9.336;2022-09-09T04:45:57;14.50;99.90
37786;DHT22;23625;48.784;9.336;2022-09-09T04:48:25;14.60;99.90
37786;DHT22;23625;48.784;9.336;2022-09-09T04:51:12;14.60;99.90
37786;DHT22;23625;48.784;9.336;2022-09-09T04:53:37;14.70;99.90
37786;DHT22;23625;48.784;9.336;2022-09-09T04:56:08;14.70;99.90
37786;DHT22;23625;48.784;9.336;2022-09-09T04:58:36;14.80;99.90
37786;DHT22;23625;48.784;9.336;2022-09-09T05:01:22;14.70;99.90
37786;DHT22;23625;48.784;9.336;2022-09-09T05:03:49;14.80;99.90
37786;DHT22;23625;48.784;9.336;2022-09-09T05:06:18;14.70;99.90
37786;DHT22;23625;48.784;9.336;2022-09-09T05:08:44;14.70;99.90
37786;DHT22;23625;48.784;9.336;2022-09-09T05:11:21;14.70;99.90
37786;DHT22;23625;48.784;9.336;2022-09-09T05:13:48;14.70;99.90
37786;DHT22;23625;48.784;9.336;2022-09-09T05:16:15;14.70;99.90
37786;DHT22;23625;48.784;9.336;2022-09-09T05:18:41;14.60;99.90
37786;DHT22;23625;48.784;9.336;2022-09-09T05:21:10;14.60;99.90
37786;DHT22;23625;48.784;9.336;2022-09-09T05:23:36;14.60;99.90
37786;DHT22;23625;48.784;9.336;2022-09-09T05:26:03;14.60;99.90
37786;DHT22;23625;48.784;9.336;2022-09-09T05:28:29;14.60;99.90
37786;DHT22;23625;48.784;9.336;2022-09-09T05:31:06;14.60;99.90
37786;DHT22;23625;48.784;9.336;2022-09-09T05:33:38;14.60;99.90
37786;DHT22;23625;48.784;9.336;2022-09-09T05:36:08;14.60;99.90
37786;DHT22;23625;48.784;9.336;2022-09-09T05:38:34;14.60;99.90
37786;DHT22;23625;48.784;9.336;2022-09-09T05:41:01;14.70;99.90
37786;DHT22;23625;48.784;9.336;2022-09-09T05:43:28;14.80;99.90
37786;DHT22;23625;48.784;9.336;2022-09-09T05:46:06;14.90;99.90
37786;DHT22;23625;48.784;9.336;2022-09-09T05:48:34;15.00;99.90
37786;DHT22;23625;48.784;9.336;2022-09-09T05:51:01;15.10;99.90
37786;DHT22;23625;48.784;9.336;2022-09-09T05:53:29;15.10;99.90
37786;DHT22;23625;48.784;9.336;2022-09-09T05:56:05;15.20;99.90
37786;DHT22;23625;48.784;9.336;2022-09-09T05:58:32;15.30;99.90
37786;DHT22;23625;48.784;9.336;2022-09-09T06:01:12;15.30;99.90
37786;DHT22;23625;48.784;9.336;2022-09-09T06:03:43;15.30;99.90
37786;DHT22;23625;48.784;9.336;2022-09-09T06:06:11;15.40;99.90
37786;DHT22;23625;48.784;9.336;2022-09-09T06:08:39;15.40;99.90
37786;DHT22;23625;48.784;9.336;2022-09-09T06:11:09;15.50;99.90
37786;DHT22;23625;48.784;9.336;2022-09-09T06:13:36;15.50;99.90
37786;DHT22;23625;48.784;9.336;2022-09-09T06:16:12;15.50;99.90
37786;DHT22;23625;48.784;9.336;2022-09-09T06:18:39;15.50;99.90
37786;DHT22;23625;48.784;9.336;2022-09-09T06:21:07;15.50;99.90
37786;DHT22;23625;48.784;9.336;2022-09-09T06:23:34;15.50;99.90
37786;DHT22;23625;48.784;9.336;2022-09-09T06:26:06;15.60;99.90
37786;DHT22;23625;48.784;9.336;2022-09-09T06:28:33;15.60;99.90
37786;DHT22;23625;48.784;9.336;2022-09-09T06:31:00;15.60;99.90
37786;DHT22;23625;48.784;9.336;2022-09-09T06:33:27;15.60;99.90
37786;DHT22;23625;48.784;9.336;2022-09-09T06:35:55;15.70;99.90
37786;DHT22;23625;48.784;9.336;2022-09-09T06:38:22;15.80;99.90
37786;DHT22;23625;48.784;9.336;2022-09-09T06:40:56;15.80;99.90
37786;DHT22;23625;48.784;9.336;2022-09-09T06:43:24;15.80;99.90
37786;DHT22;23625;48.784;9.336;2022-09-09T06:45:57;15.90;99.90
37786;DHT22;23625;48.784;9.336;2022-09-09T06:48:23;16.00;99.90
37786;DHT22;23625;48.784;9.336;2022-09-09T06:53:26;16.00;99.90
37786;DHT22;23625;48.784;9.336;2022-09-09T06:55:52;16.10;99.90
37786;DHT22;23625;48.784;9.336;2022-09-09T06:58:18;16.20;99.90
37786;DHT22;23625;48.784;9.336;2022-09-09T07:00:43;16.20;99.90
37786;DHT22;23625;48.784;9.336;2022-09-09T07:03:10;16.30;99.90
37786;DHT22;23625;48.784;9.336;2022-09-09T07:05:36;16.40;99.90
37786;DHT22;23625;48.784;9.336;2022-09-09T07:08:02;16.50;99.90
37786;DHT22;23625;48.784;9.336;2022-09-09T07:10:28;16.50;99.90
37786;DHT22;23625;48.784;9.336;2022-09-09T07:12:53;16.60;99.90
37786;DHT22;23625;48.784;9.336;2022-09-09T07:15:20;16.70;99.90
37786;DHT22;23625;48.784;9.336;2022-09-09T07:17:46;16.80;99.90
37786;DHT22;23625;48.784;9.336;2022-09-09T07:20:13;16.80;99.90
37786;DHT22;23625;48.784;9.336;2022-09-09T07:22:40;16.90;99.90
37786;DHT22;23625;48.784;9.336;2022-09-09T07:25:06;16.90;99.90
37786;DHT22;23625;48.784;9.336;2022-09-09T07:27:32;17.00;99.90
37786;DHT22;23625;48.784;9.336;2022-09-09T07:29:57;17.10;99.90
37786;DHT22;23625;48.784;9.336;2022-09-09T07:32:23;17.10;99.90
37786;DHT22;23625;48.784;9.336;2022-09-09T07:34:51;17.20;99.90
37786;DHT22;23625;48.784;9.336;2022-09-09T07:37:16;17.30;99.90
37786;DHT22;23625;48.784;9.336;2022-09-09T07:39:43;17.40;99.90
37786;DHT22;23625;48.784;9.336;2022-09-09T07:42:09;17.60;99.90
37786;DHT22;23625;48.784;9.336;2022-09-09T07:44:36;17.70;99.90
37786;DHT22;23625;48.784;9.336;2022-09-09T07:47:05;17.70;99.90
37786;DHT22;23625;48.784;9.336;2022-09-09T07:49:30;17.80;99.90
37786;DHT22;23625;48.784;9.336;2022-09-09T07:51:58;17.70;99.90
37786;DHT22;23625;48.784;9.336;2022-09-09T07:54:23;17.70;99.90
37786;DHT22;23625;48.784;9.336;2022-09-09T07:56:50;17.80;99.90
37786;DHT22;23625;48.784;9.336;2022-09-09T07:59:16;18.00;99.90
37786;DHT22;23625;48.784;9.336;2022-09-09T08:01:47;18.10;99.90
37786;DHT22;23625;48.784;9.336;2022-09-09T08:04:16;18.10;99.90
37786;DHT22;23625;48.784;9.336;2022-09-09T08:06:47;18.20;99.90
37786;DHT22;23625;48.784;9.336;2022-09-09T08:09:14;18.20;99.90
37786;DHT22;23625;48.784;9.336;2022-09-09T08:11:41;18.40;99.90
37786;DHT22;23625;48.784;9.336;2022-09-09T08:14:08;18.60;99.90
37786;DHT22;23625;48.784;9.336;2022-09-09T08:16:38;18.90;99.90
37786;DHT22;23625;48.784;9.336;2022-09-09T08:19:04;19.10;99.90
37786;DHT22;23625;48.784;9.336;2022-09-09T08:21:33;19.40;99.90
37786;DHT22;23625;48.784;9.336;2022-09-09T08:24:00;19.50;99.90
37786;DHT22;23625;48.784;9.336;2022-09-09T08:26:32;19.50;99.90
37786;DHT22;23625;48.784;9.336;2022-09-09T08:29:00;19.50;99.90
37786;DHT22;23625;48.784;9.336;2022-09-09T08:31:31;19.30;99.90
37786;DHT22;23625;48.784;9.336;2022-09-09T08:33:58;19.30;99.90
37786;DHT22;23625;48.784;9.336;2022-09-09T08:36:33;19.50;99.90
37786;DHT22;23625;48.784;9.336;2022-09-09T08:38:59;19.80;99.90
37786;DHT22;23625;48.784;9.336;2022-09-09T08:50:30;20.80;99.90
37786;DHT22;23625;48.784;9.336;2022-09-09T08:53:14;21.00;99.90
37786;DHT22;23625;48.784;9.336;2022-09-09T08:55:48;21.20;99.90
37786;DHT22;23625;48.784;9.336;2022-09-09T08:58:27;21.40;99.20
37786;DHT22;23625;48.784;9.336;2022-09-09T09:12:18;22.30;93.30
37786;DHT22;23625;48.784;9.336;2022-09-09T09:14:46;22.40;90.80
37786;DHT22;23625;48.784;9.336;2022-09-09T09:17:20;22.40;86.10
37786;DHT22;23625;48.784;9.336;2022-09-09T09:19:48;22.20;89.00
37786;DHT22;23625;48.784;9.336;2022-09-09T09:22:21;22.20;90.20
37786;DHT22;23625;48.784;9.336;2022-09-09T09:24:52;22.40;87.40
37786;DHT22;23625;48.784;9.336;2022-09-09T09:27:31;22.60;82.10
37786;DHT22;23625;48.784;9.336;2022-09-09T09:29:59;22.80;82.50
37786;DHT22;23625;48.784;9.336;2022-09-09T09:32:30;22.90;77.70
37786;DHT22;23625;48.784;9.336;2022-09-09T09:34:58;23.00;76.50
37786;DHT22;23625;48.784;9.336;2022-09-09T09:37:35;22.90;82.10
37786;DHT22;23625;48.784;9.336;2022-09-09T09:40:18;22.80;79.50
37786;DHT22;23625;48.784;9.336;2022-09-09T09:42:53;22.70;82.70
37786;DHT22;23625;48.784;9.336;2022-09-09T09:45:33;22.20;89.20
37786;DHT22;23625;48.784;9.336;2022-09-09T09:48:04;21.80;90.80
37786;DHT22;23625;48.784;9.336;2022-09-09T09:50:31;20.70;87.50
37786;DHT22;23625;48.784;9.336;2022-09-09T09:53:03;20.10;99.90
37786;DHT22;23625;48.784;9.336;2022-09-09T09:55:33;19.90;99.90
37786;DHT22;23625;48.784;9.336;2022-09-09T09:58:06;20.00;99.90
37786;DHT22;23625;48.784;9.336;2022-09-09T10:00:51;20.10;99.90
37786;DHT22;23625;48.784;9.336;2022-09-09T10:03:31;20.50;99.90
37786;DHT22;23625;48.784;9.336;2022-09-09T10:05:57;20.80;98.90
37786;DHT22;23625;48.784;9.336;2022-09-09T10:08:24;21.00;97.30
37786;DHT22;23625;48.784;9.336;2022-09-09T10:13:57;21.50;96.30
37786;DHT22;23625;48.784;9.336;2022-09-09T10:19:45;21.80;95.50
37786;DHT22;23625;48.784;9.336;2022-09-09T10:22:26;22.00;96.30
37786;DHT22;23625;48.784;9.336;2022-09-09T10:41:30;23.10;78.50
37786;DHT22;23625;48.784;9.336;2022-09-09T10:57:47;23.80;70.20
37786;DHT22;23625;48.784;9.336;2022-09-09T11:00:19;23.90;68.30
37786;DHT22;23625;48.784;9.336;2022-09-09T11:02:59;24.10;69.60
37786;DHT22;23625;48.784;9.336;2022-09-09T11:05:28;24.10;68.60
37786;DHT22;23625;48.784;9.336;2022-09-09T11:08:03;23.70;68.30
37786;DHT22;23625;48.784;9.336;2022-09-09T11:10:59;23.40;70.00
37786;DHT22;23625;48.784;9.336;2022-09-09T11:19:30;23.50;77.00
37786;DHT22;23625;48.784;9.336;2022-09-09T11:22:05;24.00;69.40
37786;DHT22;23625;48.784;9.336;2022-09-09T11:24:38;23.80;65.60
37786;DHT22;23625;48.784;9.336;2022-09-09T11:38:28;23.00;68.70
37786;DHT22;23625;48.784;9.336;2022-09-09T11:40:57;22.70;70.40
37786;DHT22;23625;48.784;9.336;2022-09-09T11:43:45;22.30;67.70
37786;DHT22;23625;48.784;9.336;2022-09-09T11:46:17;21.90;68.60
37786;DHT22;23625;48.784;9.336;2022-09-09T11:48:45;21.40;68.10
37786;DHT22;23625;48.784;9.336;2022-09-09T11:51:27;21.10;79.40
37786;DHT22;23625;48.784;9.336;2022-09-09T11:53:54;20.60;98.30
37786;DHT22;23625;48.784;9.336;2022-09-09T11:59:05;19.40;99.90
37786;DHT22;23625;48.784;9.336;2022-09-09T12:01:36;19.10;99.90
37786;DHT22;23625;48.784;9.336;2022-09-09T12:06:51;19.40;99.90
37786;DHT22;23625;48.784;9.336;2022-09-09T12:09:22;19.50;99.90
37786;DHT22;23625;48.784;9.336;2022-09-09T12:11:51;19.70;99.90
37786;DHT22;23625;48.784;9.336;2022-09-09T12:14:23;19.80;99.90
37786;DHT22;23625;48.784;9.336;2022-09-09T12:17:10;19.80;99.90
37786;DHT22;23625;48.784;9.336;2022-09-09T12:19:42;20.00;99.90
37786;DHT22;23625;48.784;9.336;2022-09-09T12:22:23;20.10;99.00
37786;DHT22;23625;48.784;9.336;2022-09-09T12:27:31;20.20;95.10
37786;DHT22;23625;48.784;9.336;2022-09-09T12:30:07;20.10;96.60
37786;DHT22;23625;48.784;9.336;2022-09-09T12:32:35;20.10;97.30
37786;DHT22;23625;48.784;9.336;2022-09-09T12:35:07;20.00;99.80
37786;DHT22;23625;48.784;9.336;2022-09-09T12:37:47;19.90;98.10
37786;DHT22;23625;48.784;9.336;2022-09-09T12:42:46;20.20;96.10
37786;DHT22;23625;48.784;9.336;2022-09-09T12:45:20;20.40;92.90
37786;DHT22;23625;48.784;9.336;2022-09-09T12:48:12;20.70;91.30
37786;DHT22;23625;48.784;9.336;2022-09-09T12:50:49;21.10;90.50
37786;DHT22;23625;48.784;9.336;2022-09-09T12:56:01;21.20;74.10
37786;DHT22;23625;48.784;9.336;2022-09-09T12:58:28;21.20;78.20
37786;DHT22;23625;48.784;9.336;2022-09-09T13:00:59;21.00;71.00
37786;DHT22;23625;48.784;9.336;2022-09-09T13:03:26;21.00;70.40
37786;DHT22;23625;48.784;9.336;2022-09-09T13:05:52;21.00;75.80
37786;DHT22;23625;48.784;9.336;2022-09-09T13:08:19;21.00;75.60
37786;DHT22;23625;48.784;9.336;2022-09-09T13:10:56;21.00;73.20
37786;DHT22;23625;48.784;9.336;2022-09-09T13:13:27;21.20;73.30
37786;DHT22;23625;48.784;9.336;2022-09-09T13:15:59;21.20;71.30
37786;DHT22;23625;48.784;9.336;2022-09-09T13:18:29;21.20;69.80
37786;DHT22;23625;48.784;9.336;2022-09-09T13:20:57;21.10;70.90
37786;DHT22;23625;48.784;9.336;2022-09-09T13:23:26;21.10;70.90
37786;DHT22;23625;48.784;9.336;2022-09-09T13:28:31;21.00;72.30
37786;DHT22;23625;48.784;9.336;2022-09-09T13:33:36;21.10;64.80
37786;DHT22;23625;48.784;9.336;2022-09-09T13:36:10;21.20;67.90
37786;DHT22;23625;48.784;9.336;2022-09-09T13:38:40;21.30;65.10
37786;DHT22;23625;48.784;9.336;2022-09-09T13:41:08;21.20;66.30
37786;DHT22;23625;48.784;9.336;2022-09-09T13:43:45;21.30;67.50
37786;DHT22;23625;48.784;9.336;2022-09-09T13:46:33;21.60;68.00
37786;DHT22;23625;48.784;9.336;2022-09-09T13:49:01;21.70;63.70
37786;DHT22;23625;48.784;9.336;2022-09-09T13:54:00;22.20;62.20
37786;DHT22;23625;48.784;9.336;2022-09-09T13:56:26;22.50;62.80
37786;DHT22;23625;48.784;9.336;2022-09-09T13:58:52;22.70;61.70
37786;DHT22;23625;48.784;9.336;2022-09-09T14:01:17;22.80;60.20
37786;DHT22;23625;48.784;9.336;2022-09-09T14:03:43;22.70;59.80
37786;DHT22;23625;48.784;9.336;2022-09-09T14:06:10;22.60;59.00
37786;DHT22;23625;48.784;9.336;2022-09-09T14:08:36;22.90;61.20
37786;DHT22;23625;48.784;9.336;2022-09-09T14:11:05;23.10;59.60
37786;DHT22;23625;48.784;9.336;2022-09-09T14:13:31;23.40;58.70
37786;DHT22;23625;48.784;9.336;2022-09-09T14:15:57;23.40;57.20
37786;DHT22;23625;48.784;9.336;2022-09-09T14:18:22;23.40;56.30
37786;DHT22;23625;48.784;9.336;2022-09-09T14:20:50;23.20;57.60
37786;DHT22;23625;48.784;9.336;2022-09-09T14:23:16;23.20;58.60
37786;DHT22;23625;48.784;9.336;2022-09-09T14:25:45;23.30;57.80
37786;DHT22;23625;48.784;9.336;2022-09-09T14:28:12;23.50;57.00
37786;DHT22;23625;48.784;9.336;2022-09-09T14:30:40;23.70;58.20
37786;DHT22;23625;48.784;9.336;2022-09-09T14:33:06;23.70;58.50
37786;DHT22;23625;48.784;9.336;2022-09-09T14:35:32;23.70;55.50
37786;DHT22;23625;48.784;9.336;2022-09-09T14:37:59;23.50;54.70
37786;DHT22;23625;48.784;9.336;2022-09-09T14:40:25;23.40;55.60
37786;DHT22;23625;48.784;9.336;2022-09-09T14:42:52;23.50;55.00
37786;DHT22;23625;48.784;9.336;2022-09-09T14:45:18;23.60;55.00
37786;DHT22;23625;48.784;9.336;2022-09-09T14:47:44;23.70;55.00
37786;DHT22;23625;48.784;9.336;2022-09-09T14:50:10;23.70;53.40
37786;DHT22;23625;48.784;9.336;2022-09-09T14:52:37;24.00;52.80
37786;DHT22;23625;48.784;9.336;2022-09-09T14:55:04;24.10;52.60
37786;DHT22;23625;48.784;9.336;2022-09-09T14:57:30;23.90;51.80
37786;DHT22;23625;48.784;9.336;2022-09-09T14:59:56;23.80;52.10
37786;DHT22;23625;48.784;9.336;2022-09-09T15:02:22;23.90;52.00
37786;DHT22;23625;48.784;9.336;2022-09-09T15:04:47;24.00;51.10
37786;DHT22;23625;48.784;9.336;2022-09-09T15:07:15;24.10;51.20
37786;DHT22;23625;48.784;9.336;2022-09-09T15:09:42;24.00;49.60
37786;DHT22;23625;48.784;9.336;2022-09-09T15:12:07;23.90;51.10
37786;DHT22;23625;48.784;9.336;2022-09-09T15:14:33;23.90;50.40
37786;DHT22;23625;48.784;9.336;2022-09-09T15:16:59;23.60;50.60
37786;DHT22;23625;48.784;9.336;2022-09-09T15:19:24;23.60;51.50
37786;DHT22;23625;48.784;9.336;2022-09-09T15:21:50;23.70;50.60
37786;DHT22;23625;48.784;9.336;2022-09-09T15:24:16;23.80;51.40
37786;DHT22;23625;48.784;9.336;2022-09-09T15:26:42;23.50;51.80
37786;DHT22;23625;48.784;9.336;2022-09-09T15:29:08;23.40;51.80
37786;DHT22;23625;48.784;9.336;2022-09-09T15:31:34;23.30;53.00
37786;DHT22;23625;48.784;9.336;2022-09-09T15:34:02;23.20;52.50
37786;DHT22;23625;48.784;9.336;2022-09-09T15:36:39;23.10;52.40
37786;DHT22;23625;48.784;9.336;2022-09-09T15:39:07;23.00;52.30
37786;DHT22;23625;48.784;9.336;2022-09-09T15:41:35;22.90;53.00
37786;DHT22;23625;48.784;9.336;2022-09-09T15:44:01;23.10;53.50
37786;DHT22;23625;48.784;9.336;2022-09-09T15:46:44;23.20;53.50
37786;DHT22;23625;48.784;9.336;2022-09-09T15:49:24;23.30;53.00
37786;DHT22;23625;48.784;9.336;2022-09-09T15:51:59;23.10;52.90
37786;DHT22;23625;48.784;9.336;2022-09-09T15:54:32;22.90;53.80
37786;DHT22;23625;48.784;9.336;2022-09-09T15:56:59;22.70;54.60
37786;DHT22;23625;48.784;9.336;2022-09-09T15:59:27;22.50;54.80
37786;DHT22;23625;48.784;9.336;2022-09-09T16:01:53;22.20;56.00
37786;DHT22;23625;48.784;9.336;2022-09-09T16:04:20;22.10;56.60
37786;DHT22;23625;48.784;9.336;2022-09-09T16:06:59;22.00;56.80
37786;DHT22;23625;48.784;9.336;2022-09-09T16:09:26;22.00;57.30
37786;DHT22;23625;48.784;9.336;2022-09-09T16:11:52;21.80;58.00
37786;DHT22;23625;48.784;9.336;2022-09-09T16:14:19;21.70;58.40
37786;DHT22;23625;48.784;9.336;2022-09-09T16:16:45;21.70;58.50
37786;DHT22;23625;48.784;9.336;2022-09-09T16:19:12;21.80;57.20
37786;DHT22;23625;48.784;9.336;2022-09-09T16:21:40;21.70;57.40
37786;DHT22;23625;48.784;9.336;2022-09-09T16:24:08;21.70;56.40
37786;DHT22;23625;48.784;9.336;2022-09-09T16:26:36;21.50;57.60
37786;DHT22;23625;48.784;9.336;2022-09-09T16:29:03;21.40;58.00
37786;DHT22;23625;48.784;9.336;2022-09-09T16:31:29;21.30;57.50
37786;DHT22;23625;48.784;9.336;2022-09-09T16:33:56;21.30;58.00
37786;DHT22;23625;48.784;9.336;2022-09-09T16:36:27;21.30;58.00
37786;DHT22;23625;48.784;9.336;2022-09-09T16:38:56;21.20;59.00
37786;DHT22;23625;48.784;9.336;2022-09-09T16:41:27;21.10;59.40
37786;DHT22;23625;48.784;9.336;2022-09-09T16:43:55;21.00;60.30
37786;DHT22;23625;48.784;9.336;2022-09-09T16:46:21;21.00;60.80
37786;DHT22;23625;48.784;9.336;2022-09-09T16:48:50;20.90;61.50
37786;DHT22;23625;48.784;9.336;2022-09-09T16:51:21;20.90;61.90
37786;DHT22;23625;48.784;9.336;2022-09-09T16:53:48;21.10;60.90
37786;DHT22;23625;48.784;9.336;2022-09-09T16:56:16;21.00;63.10
37786;DHT22;23625;48.784;9.336;2022-09-09T16:58:43;20.70;64.80
37786;DHT22;23625;48.784;9.336;2022-09-09T17:01:10;20.50;66.70
37786;DHT22;23625;48.784;9.336;2022-09-09T17:03:40;20.40;67.90
37786;DHT22;23625;48.784;9.336;2022-09-09T17:06:13;20.40;69.00
37786;DHT22;23625;48.784;9.336;2022-09-09T17:08:39;20.30;69.20
37786;DHT22;23625;48.784;9.336;2022-09-09T17:11:17;20.20;70.00
37786;DHT22;23625;48.784;9.336;2022-09-09T17:13:44;20.20;68.10
37786;DHT22;23625;48.784;9.336;2022-09-09T17:16:10;20.30;65.40
37786;DHT22;23625;48.784;9.336;2022-09-09T17:18:37;20.10;65.90
37786;DHT22;23625;48.784;9.336;2022-09-09T17:21:22;20.10;65.10
37786;DHT22;23625;48.784;9.336;2022-09-09T17:23:49;20.00;65.90
37786;DHT22;23625;48.784;9.336;2022-09-09T17:26:17;19.80;66.30
37786;DHT22;23625;48.784;9.336;2022-09-09T17:28:44;19.60;66.80
37786;DHT22;23625;48.784;9.336;2022-09-09T17:31:12;19.60;67.00
37786;DHT22;23625;48.784;9.336;2022-09-09T17:33:40;19.50;68.00
37786;DHT22;23625;48.784;9.336;2022-09-09T17:38:37;19.30;70.50
37786;DHT22;23625;48.784;9.336;2022-09-09T17:41:04;19.20;71.00
37786;DHT22;23625;48.784;9.336;2022-09-09T17:43:30;19.20;70.70
37786;DHT22;23625;48.784;9.336;2022-09-09T17:48:36;19.00;75.10
37786;DHT22;23625;48.784;9.336;2022-09-09T17:51:04;18.90;77.40
37786;DHT22;23625;48.784;9.336;2022-09-09T17:53:30;18.80;77.40
37786;DHT22;23625;48.784;9.336;2022-09-09T17:56:02;18.60;81.20
37786;DHT22;23625;48.784;9.336;2022-09-09T17:58:28;18.60;83.90
37786;DHT22;23625;48.784;9.336;2022-09-09T18:00:53;18.50;86.20
37786;DHT22;23625;48.784;9.336;2022-09-09T18:03:20;18.40;88.30